Plano, Texas
Current Conditions -  °F | °C
As of 5:50 AM on Thursday 27 Nov 2014 (Local Time) from KADS Reporting Station
Clear Clear  
Wind Chill: 34°   Ceiling: Unl
Heat Index: 39°   Visibility: 10mi
Dew Point: 27°   Wind: 7mph
Humidity: 61%   Direction: 30°NNE
Pressure: 30.49"   Gusts: NA
Location:  33.02°N, 96.7°W
Report Text: KADS 271150Z 03006KT 10SM SKC 04/M03 A3049
Loading
Personal Weather Stations






























Interactive Weather Map New forecast layout! Learn more

10-Day Weather Forecast

Advertisements
Track Severe Weather on mobile